Time;durP1;ratioP1;P1;durP2;ratioP2;P2;SDS_P1;SDS_P2;PMS_P1;PMS_P2;Temp;Humidity;BMP_temperature;BMP_pressure;BME280_temperature;BME280_humidity;BME280_pressure;Samples;Min_cycle;Max_cycle;Signal;HPM_P1;HPM_P2
2022/05/14 00:01:06;;;;;;;0.63;0.30;;;12.10;67.70;;;;;;5095623;28;20390;-72
2022/05/14 00:03:34;;;;;;;1.35;0.50;;;12.00;67.70;;;;;;5114464;28;20426;-72
2022/05/14 00:06:03;;;;;;;0.68;0.32;;;12.00;67.70;;;;;;5113957;28;20051;-72
2022/05/14 00:08:31;;;;;;;0.38;0.32;;;12.00;67.70;;;;;;5096168;28;20032;-73
2022/05/14 00:13:39;;;;;;;0.93;0.40;;;12.10;67.80;;;;;;5113812;28;20044;-72
2022/05/14 00:16:06;;;;;;;0.57;0.50;;;12.10;67.90;;;;;;5095611;28;20982;-73
2022/05/14 00:18:32;;;;;;;0.63;0.40;;;12.10;67.80;;;;;;5114277;28;20465;-72
2022/05/14 00:20:59;;;;;;;0.20;0.20;;;12.00;67.80;;;;;;5112762;28;20043;-72
2022/05/14 00:23:26;;;;;;;0.40;0.40;;;12.00;67.80;;;;;;5113682;28;20048;-73
2022/05/14 00:25:51;;;;;;;0.20;0.20;;;12.00;67.90;;;;;;5095353;28;20059;-72
2022/05/14 00:28:18;;;;;;;0.30;0.30;;;12.00;68.00;;;;;;5095644;28;20477;-72
2022/05/14 00:30:44;;;;;;;0.40;0.40;;;12.00;68.00;;;;;;5114427;28;20042;-72
2022/05/14 00:33:10;;;;;;;0.30;0.30;;;12.00;68.10;;;;;;5113530;28;20130;-72
2022/05/14 00:35:36;;;;;;;0.25;0.20;;;12.00;68.10;;;;;;5113600;28;20036;-73
2022/05/14 00:38:03;;;;;;;0.20;0.20;;;11.90;68.10;;;;;;5113589;28;20045;-72
2022/05/14 00:40:36;;;;;;;0.35;0.25;;;11.90;68.20;;;;;;5078729;28;20126;-72
2022/05/14 00:43:03;;;;;;;0.20;0.20;;;11.90;68.30;;;;;;5112304;28;20123;-71
2022/05/14 00:45:33;;;;;;;0.65;0.20;;;11.90;68.30;;;;;;5113417;28;20496;-72
2022/05/14 00:48:00;;;;;;;1.85;0.40;;;11.90;68.30;;;;;;5113254;28;20040;-72
2022/05/14 00:50:36;;;;;;;0.40;0.22;;;11.90;68.30;;;;;;5113337;28;20085;-72
2022/05/14 00:53:07;;;;;;;0.70;0.40;;;11.90;68.70;;;;;;5078648;28;20054;-71
2022/05/14 00:55:34;;;;;;;0.95;0.20;;;11.90;68.30;;;;;;5113775;28;20493;-72
2022/05/14 00:58:01;;;;;;;0.20;0.20;;;11.90;68.30;;;;;;5094982;28;20485;-72
2022/05/14 01:00:29;;;;;;;0.63;0.40;;;11.90;68.30;;;;;;5113173;28;20043;-71
2022/05/14 01:02:55;;;;;;;0.60;0.20;;;12.00;68.40;;;;;;5113630;28;20047;-71
2022/05/14 01:05:21;;;;;;;0.40;0.30;;;11.80;68.20;;;;;;5094791;28;20393;-71
2022/05/14 01:07:50;;;;;;;0.20;0.20;;;11.90;68.40;;;;;;5112923;28;20046;-72
2022/05/14 01:10:18;;;;;;;0.57;0.30;;;11.80;68.50;;;;;;5112961;28;20380;-72
2022/05/14 01:12:51;;;;;;;0.40;0.30;;;11.80;68.60;;;;;;5112824;28;20472;-72
2022/05/14 01:15:20;;;;;;;0.20;0.20;;;11.70;68.70;;;;;;5094682;28;20046;-71
2022/05/14 01:17:48;;;;;;;0.28;0.28;;;11.80;68.70;;;;;;5112765;28;20044;-72
2022/05/14 01:20:16;;;;;;;0.20;0.20;;;11.80;68.70;;;;;;5094550;28;20048;-72
2022/05/14 01:23:01;;;;;;;0.82;0.47;;;11.80;68.70;;;;;;5094372;28;20040;-72
2022/05/14 01:28:49;;;;;;;0.30;0.30;;;11.90;68.80;;;;;;5100511;28;20096;-71
2022/05/14 01:31:15;;;;;;;0.35;0.20;;;11.90;68.70;;;;;;5094326;28;20481;-71
2022/05/14 01:33:40;;;;;;;0.28;0.20;;;11.80;68.70;;;;;;5112330;28;20036;-72
2022/05/14 01:36:08;;;;;;;0.30;0.20;;;11.80;68.70;;;;;;5113307;28;20409;-71
2022/05/14 01:38:35;;;;;;;0.20;0.20;;;11.80;68.70;;;;;;5110857;28;20043;-72
2022/05/14 01:41:01;;;;;;;0.20;0.20;;;11.90;68.70;;;;;;5094307;28;20051;-72
2022/05/14 01:43:28;;;;;;;0.63;0.30;;;11.80;68.70;;;;;;5112543;28;20123;-72
2022/05/14 01:45:53;;;;;;;0.60;0.30;;;11.80;68.70;;;;;;5094621;28;20134;-71
2022/05/14 01:48:19;;;;;;;1.10;0.30;;;11.90;68.80;;;;;;5112652;28;20096;-71
2022/05/14 01:50:45;;;;;;;0.40;0.38;;;11.90;68.90;;;;;;5094018;28;20070;-71
2022/05/14 01:53:11;;;;;;;0.43;0.30;;;11.80;68.80;;;;;;5112456;28;20035;-71
2022/05/14 01:55:37;;;;;;;0.75;0.40;;;11.80;68.80;;;;;;5112305;28;20473;-71
2022/05/14 02:00:41;;;;;;;0.60;0.38;;;11.90;69.10;;;;;;5112290;28;20122;-71
2022/05/14 02:03:07;;;;;;;0.30;0.30;;;11.80;69.10;;;;;;5094130;28;20142;-72
2022/05/14 02:05:33;;;;;;;0.93;0.30;;;11.70;69.10;;;;;;5094178;28;20110;-71
2022/05/14 02:07:59;;;;;;;0.80;0.20;;;11.70;69.30;;;;;;5112855;28;20047;-72
2022/05/14 02:10:25;;;;;;;0.38;0.38;;;11.70;69.40;;;;;;5112694;28;20039;-72
2022/05/14 02:12:50;;;;;;;0.70;0.40;;;11.60;69.40;;;;;;5112214;28;20039;-72
2022/05/14 02:15:16;;;;;;;0.63;0.30;;;11.50;69.60;;;;;;5093818;28;20094;-72
2022/05/14 02:17:42;;;;;;;0.40;0.22;;;11.50;69.70;;;;;;5093917;28;20051;-71
2022/05/14 02:20:08;;;;;;;0.68;0.35;;;11.50;69.80;;;;;;5093982;28;20054;-71
2022/05/14 02:22:33;;;;;;;1.20;0.40;;;11.50;69.80;;;;;;5112041;28;20047;-71
2022/05/14 02:24:59;;;;;;;0.28;0.28;;;11.60;69.90;;;;;;5111796;28;20083;-71
2022/05/14 02:27:25;;;;;;;0.40;0.40;;;11.50;69.90;;;;;;5111866;28;20485;-72
2022/05/14 02:29:51;;;;;;;0.65;0.30;;;11.40;69.90;;;;;;5112200;28;20392;-71
2022/05/14 02:32:18;;;;;;;0.28;0.28;;;11.40;70.00;;;;;;5093660;28;20046;-72
2022/05/14 02:34:44;;;;;;;0.52;0.30;;;11.30;70.00;;;;;;5112091;28;20065;-71
2022/05/14 02:37:10;;;;;;;0.28;0.20;;;11.40;70.20;;;;;;5111676;28;20416;-71
2022/05/14 02:39:35;;;;;;;0.20;0.20;;;11.30;70.10;;;;;;5111990;28;20043;-71
2022/05/14 02:42:01;;;;;;;0.13;0.13;;;11.30;70.20;;;;;;5111732;28;20150;-71
2022/05/14 02:44:27;;;;;;;0.32;0.30;;;11.30;70.90;;;;;;5112820;28;20093;-72
2022/05/14 02:46:53;;;;;;;0.35;0.30;;;11.30;70.30;;;;;;5115742;28;20067;-72
2022/05/14 02:49:18;;;;;;;0.38;0.38;;;11.10;70.40;;;;;;5115316;28;20401;-71
2022/05/14 02:51:44;;;;;;;0.70;0.35;;;11.20;70.60;;;;;;5115346;28;20039;-71
2022/05/14 02:54:10;;;;;;;0.77;0.32;;;11.10;70.70;;;;;;5097224;28;20059;-72
2022/05/14 02:56:36;;;;;;;0.57;0.20;;;11.10;70.70;;;;;;5096956;28;20055;-72
2022/05/14 02:59:09;;;;;;;1.35;0.30;;;11.00;70.60;;;;;;5115407;28;20044;-71
2022/05/14 03:01:37;;;;;;;0.50;0.40;;;11.00;70.60;;;;;;5115731;28;20044;-72
2022/05/14 03:04:04;;;;;;;0.55;0.30;;;11.00;70.60;;;;;;5115276;28;20501;-72
2022/05/14 03:06:30;;;;;;;0.85;0.40;;;11.00;70.60;;;;;;5113878;28;20499;-72
2022/05/14 03:08:56;;;;;;;0.38;0.28;;;10.90;70.70;;;;;;5115556;28;20027;-72
2022/05/14 03:11:22;;;;;;;1.02;0.30;;;11.00;70.80;;;;;;5097203;28;20046;-71
2022/05/14 03:13:49;;;;;;;0.65;0.30;;;10.90;70.60;;;;;;5114965;28;20044;-74
2022/05/14 03:16:15;;;;;;;0.85;0.20;;;10.90;70.70;;;;;;5115740;28;20023;-73
2022/05/14 03:18:41;;;;;;;0.40;0.30;;;10.90;70.80;;;;;;5115494;28;20046;-73
2022/05/14 03:21:07;;;;;;;0.52;0.35;;;10.90;70.90;;;;;;5096860;28;20110;-73
2022/05/14 03:23:33;;;;;;;0.32;0.30;;;10.80;70.90;;;;;;5114908;28;20067;-73
2022/05/14 03:25:59;;;;;;;0.25;0.17;;;10.80;71.00;;;;;;5096669;28;20042;-73
2022/05/14 03:28:25;;;;;;;0.20;0.20;;;10.80;71.00;;;;;;5114844;28;20119;-73
2022/05/14 03:30:50;;;;;;;0.30;0.30;;;10.80;71.60;;;;;;5114901;28;20423;-73
2022/05/14 03:33:16;;;;;;;0.60;0.30;;;10.80;71.00;;;;;;5114897;28;20040;-73
2022/05/14 03:35:42;;;;;;;0.30;0.30;;;10.80;71.10;;;;;;5114838;28;20038;-73
2022/05/14 03:38:08;;;;;;;0.60;0.30;;;10.70;71.10;;;;;;5114692;28;20040;-73
2022/05/14 03:40:33;;;;;;;0.60;0.40;;;10.70;71.10;;;;;;5114536;28;20072;-73
2022/05/14 03:42:59;;;;;;;0.70;0.20;;;10.70;71.10;;;;;;5114573;28;20123;-73
2022/05/14 03:45:25;;;;;;;0.50;0.32;;;10.70;71.00;;;;;;5114464;28;20039;-73
2022/05/14 03:47:51;;;;;;;0.30;0.30;;;10.70;71.10;;;;;;5114675;28;20040;-74
2022/05/14 03:50:17;;;;;;;0.80;0.25;;;10.70;71.20;;;;;;5096365;28;20177;-73
2022/05/14 03:52:42;;;;;;;0.32;0.30;;;10.60;71.30;;;;;;5114526;28;20097;-73
2022/05/14 03:55:08;;;;;;;0.45;0.30;;;10.60;71.40;;;;;;5114159;28;20046;-73
2022/05/14 03:57:34;;;;;;;0.30;0.30;;;10.60;71.40;;;;;;5096001;28;20534;-71
2022/05/14 04:00:01;;;;;;;0.30;0.30;;;10.60;71.40;;;;;;5095998;28;20036;-71
2022/05/14 04:02:27;;;;;;;0.25;0.20;;;10.60;71.50;;;;;;5062720;28;20389;-71
2022/05/14 04:04:53;;;;;;;0.68;0.45;;;10.60;71.60;;;;;;5114916;28;20043;-72
2022/05/14 04:07:19;;;;;;;0.30;0.30;;;10.50;71.60;;;;;;5096287;28;20092;-71
2022/05/14 04:09:45;;;;;;;0.47;0.25;;;10.60;71.70;;;;;;5114169;28;20100;-71
2022/05/14 04:12:10;;;;;;;0.20;0.20;;;10.60;71.70;;;;;;5114391;28;20035;-71
2022/05/14 04:14:36;;;;;;;0.28;0.28;;;10.50;71.70;;;;;;5114255;28;20039;-71
2022/05/14 04:17:03;;;;;;;0.50;0.30;;;10.50;71.80;;;;;;5113818;28;20043;-71
2022/05/14 04:19:29;;;;;;;0.28;0.28;;;10.50;71.80;;;;;;5114618;28;20496;-72
2022/05/14 04:21:55;;;;;;;0.30;0.30;;;10.50;71.80;;;;;;5114063;28;20492;-72
2022/05/14 04:24:21;;;;;;;0.55;0.30;;;10.40;71.80;;;;;;5095697;28;20047;-71
2022/05/14 04:26:47;;;;;;;0.60;0.35;;;10.50;71.80;;;;;;5113876;28;20051;-71
2022/05/14 04:29:12;;;;;;;0.65;0.30;;;10.50;71.90;;;;;;5113795;28;20036;-72
2022/05/14 04:31:39;;;;;;;0.40;0.22;;;10.50;71.90;;;;;;5114113;28;20035;-72
2022/05/14 04:34:06;;;;;;;0.75;0.30;;;10.50;71.90;;;;;;5114277;28;20114;-72
2022/05/14 04:36:32;;;;;;;0.40;0.40;;;10.50;71.90;;;;;;5114268;28;20070;-72
2022/05/14 04:38:57;;;;;;;0.57;0.40;;;10.50;71.90;;;;;;5114339;28;20437;-72
2022/05/14 04:41:25;;;;;;;0.40;0.40;;;10.50;71.90;;;;;;5114206;28;20370;-72
2022/05/14 04:43:52;;;;;;;0.40;0.30;;;10.50;72.00;;;;;;5095800;28;20063;-72
2022/05/14 04:46:17;;;;;;;0.40;0.20;;;10.50;72.00;;;;;;5078709;28;20084;-72
2022/05/14 04:48:43;;;;;;;0.65;0.30;;;10.60;72.60;;;;;;5113697;28;20031;-72
2022/05/14 04:51:09;;;;;;;0.47;0.40;;;10.50;72.00;;;;;;5113936;28;20067;-72
2022/05/14 04:53:35;;;;;;;0.63;0.30;;;10.50;72.00;;;;;;5113957;28;20036;-72
2022/05/14 04:56:00;;;;;;;0.50;0.40;;;10.50;72.10;;;;;;5113453;28;20405;-72
2022/05/14 04:58:26;;;;;;;0.38;0.30;;;10.50;72.00;;;;;;5113537;28;20135;-72
2022/05/14 05:00:52;;;;;;;1.30;0.40;;;10.50;72.00;;;;;;5113869;28;20042;-72
2022/05/14 05:03:18;;;;;;;0.20;0.20;;;10.60;72.00;;;;;;5095351;28;20074;-72
2022/05/14 05:05:45;;;;;;;0.40;0.30;;;10.60;71.90;;;;;;5113810;28;20126;-72
2022/05/14 05:08:11;;;;;;;2.72;0.60;;;10.60;71.90;;;;;;5094822;28;20126;-72
2022/05/14 05:10:37;;;;;;;0.28;0.28;;;10.60;71.80;;;;;;5113084;28;20118;-72
2022/05/14 05:13:03;;;;;;;0.40;0.30;;;10.70;71.90;;;;;;5113348;28;20065;-72
2022/05/14 05:15:29;;;;;;;0.43;0.40;;;10.70;71.90;;;;;;5113616;28;20047;-72
2022/05/14 05:17:55;;;;;;;0.35;0.35;;;10.80;71.80;;;;;;5095680;28;20477;-73
2022/05/14 05:20:21;;;;;;;1.67;0.50;;;10.80;71.80;;;;;;5061406;28;20052;-72
2022/05/14 05:22:48;;;;;;;1.08;0.40;;;10.80;71.70;;;;;;5113432;28;20046;-72
2022/05/14 05:25:14;;;;;;;0.77;0.40;;;10.90;71.80;;;;;;5113706;28;20071;-72
2022/05/14 05:27:40;;;;;;;0.50;0.40;;;10.90;71.80;;;;;;5113812;28;20035;-73
2022/05/14 05:30:07;;;;;;;0.45;0.40;;;10.90;71.70;;;;;;5095497;28;20055;-73
2022/05/14 05:32:32;;;;;;;0.98;0.50;;;10.90;71.70;;;;;;5113781;28;20051;-73
2022/05/14 05:34:58;;;;;;;0.40;0.40;;;10.90;71.70;;;;;;5078265;28;20039;-73
2022/05/14 05:37:24;;;;;;;1.15;0.50;;;11.00;71.70;;;;;;5113790;28;20108;-73
2022/05/14 05:39:50;;;;;;;0.43;0.43;;;11.10;71.80;;;;;;5113054;28;20066;-73
2022/05/14 05:42:16;;;;;;;0.40;0.40;;;11.10;71.80;;;;;;5112926;28;20505;-73
2022/05/14 05:44:41;;;;;;;0.50;0.40;;;11.10;71.80;;;;;;5113171;28;20488;-73
2022/05/14 05:47:07;;;;;;;1.08;0.38;;;11.10;71.80;;;;;;5113167;28;20485;-73
2022/05/14 05:49:35;;;;;;;1.30;0.30;;;11.20;71.80;;;;;;5112582;28;20035;-73
2022/05/14 05:52:00;;;;;;;0.50;0.45;;;11.20;71.80;;;;;;5094385;28;20039;-73
2022/05/14 05:57:10;;;;;;;0.73;0.50;;;11.40;71.80;;;;;;5097227;28;20118;-72
2022/05/14 05:59:36;;;;;;;0.40;0.40;;;11.40;71.70;;;;;;5112673;28;20098;-71
2022/05/14 06:02:02;;;;;;;0.50;0.50;;;11.40;71.60;;;;;;5112457;28;20048;-72
2022/05/14 06:04:28;;;;;;;1.00;0.50;;;11.50;71.70;;;;;;5113098;28;20048;-72
2022/05/14 06:06:54;;;;;;;0.30;0.30;;;11.60;71.60;;;;;;5094488;28;20180;-72
2022/05/14 06:09:22;;;;;;;0.70;0.50;;;11.60;71.60;;;;;;5112576;28;20039;-72
2022/05/14 06:11:50;;;;;;;1.40;0.75;;;11.70;71.70;;;;;;5110381;28;20040;-71
2022/05/14 06:14:16;;;;;;;1.55;0.50;;;11.70;71.60;;;;;;5113001;28;20063;-72
2022/05/14 06:16:42;;;;;;;1.15;0.45;;;11.80;71.60;;;;;;5112586;28;20039;-72
2022/05/14 06:19:08;;;;;;;1.42;0.40;;;11.90;71.60;;;;;;5112803;28;20046;-74
2022/05/14 06:21:36;;;;;;;2.20;0.60;;;11.90;71.50;;;;;;5116270;28;20032;-73
2022/05/14 06:24:02;;;;;;;0.80;0.70;;;12.00;71.50;;;;;;5097511;28;20081;-73
2022/05/14 06:26:29;;;;;;;1.92;0.85;;;12.10;71.50;;;;;;5115703;28;20071;-73
2022/05/14 06:28:54;;;;;;;1.00;0.50;;;12.20;71.40;;;;;;5115998;28;20085;-72
2022/05/14 06:31:22;;;;;;;1.27;0.77;;;12.20;71.30;;;;;;5116247;28;20039;-73
2022/05/14 06:33:49;;;;;;;1.15;0.70;;;12.30;71.30;;;;;;5116354;28;20044;-73
2022/05/14 06:36:15;;;;;;;1.13;0.90;;;12.40;71.20;;;;;;5116397;28;20043;-73
2022/05/14 06:38:41;;;;;;;1.65;0.77;;;12.50;71.20;;;;;;5115881;28;20118;-73
2022/05/14 06:41:11;;;;;;;1.48;0.82;;;12.60;71.10;;;;;;5115748;28;20470;-73
2022/05/14 06:43:38;;;;;;;1.98;0.80;;;12.70;71.10;;;;;;5114148;28;20036;-71
2022/05/14 06:46:04;;;;;;;1.95;0.90;;;12.90;71.10;;;;;;5116146;28;20457;-72
2022/05/14 06:48:31;;;;;;;1.23;0.77;;;12.90;70.80;;;;;;5115621;28;20036;-73
2022/05/14 06:51:03;;;;;;;0.82;0.73;;;13.00;70.80;;;;;;5097394;28;20423;-72
2022/05/14 06:53:29;;;;;;;1.17;0.57;;;13.20;70.80;;;;;;5080869;28;20043;-72
2022/05/14 06:55:58;;;;;;;0.68;0.50;;;13.30;70.80;;;;;;5115988;28;20047;-71
2022/05/14 06:58:28;;;;;;;0.40;0.40;;;13.40;70.70;;;;;;5115466;28;20035;-72
2022/05/14 07:00:54;;;;;;;1.60;0.70;;;13.50;70.70;;;;;;5115381;28;20035;-73
2022/05/14 07:08:48;;;;;;;1.00;0.60;;;14.00;70.40;;;;;;5115079;28;20044;-73
2022/05/14 07:11:13;;;;;;;0.80;0.60;;;14.10;70.20;;;;;;5115890;28;20038;-73
2022/05/14 07:13:39;;;;;;;2.13;0.80;;;14.30;70.00;;;;;;5113658;28;20047;-73
2022/05/14 07:16:05;;;;;;;1.17;0.60;;;14.40;69.80;;;;;;5115013;28;20051;-73
2022/05/14 07:18:32;;;;;;;1.83;0.75;;;14.50;69.70;;;;;;5115733;28;20039;-73
2022/05/14 07:20:59;;;;;;;1.88;0.70;;;14.50;69.70;;;;;;5096673;28;20485;-73
2022/05/14 07:23:25;;;;;;;1.08;0.50;;;14.70;69.70;;;;;;5115374;28;20032;-72
2022/05/14 07:25:50;;;;;;;1.63;0.88;;;14.90;69.70;;;;;;5115079;28;20156;-73
2022/05/14 07:28:16;;;;;;;1.08;0.80;;;15.00;69.60;;;;;;5115324;28;20507;-73
2022/05/14 07:30:43;;;;;;;1.15;0.95;;;15.20;69.40;;;;;;5114917;28;20084;-72
2022/05/14 07:33:09;;;;;;;1.90;0.95;;;15.40;69.10;;;;;;5115406;28;20119;-73
2022/05/14 07:35:36;;;;;;;0.50;0.50;;;15.40;69.20;;;;;;5114710;28;20404;-73
2022/05/14 07:38:04;;;;;;;2.13;0.80;;;15.60;69.20;;;;;;5115407;28;20039;-72
2022/05/14 07:40:33;;;;;;;2.00;0.85;;;15.70;69.00;;;;;;5115504;28;20043;-73
2022/05/14 07:43:03;;;;;;;2.50;1.08;;;16.00;68.90;;;;;;5114540;28;20035;-73
2022/05/14 07:45:42;;;;;;;2.03;0.90;;;16.20;68.60;;;;;;5114641;28;20039;-73
2022/05/14 07:48:14;;;;;;;1.95;0.80;;;16.30;68.60;;;;;;5114137;28;20066;-73
2022/05/14 07:50:40;;;;;;;1.52;1.00;;;16.50;68.40;;;;;;5114941;28;20032;-73
2022/05/14 07:53:06;;;;;;;2.25;1.02;;;16.60;68.20;;;;;;5114576;28;20390;-73
2022/05/14 07:55:33;;;;;;;2.13;1.08;;;16.80;68.10;;;;;;5114513;28;20041;-73
2022/05/14 07:57:59;;;;;;;2.00;1.20;;;17.00;67.90;;;;;;5114674;28;20447;-73
2022/05/14 08:00:25;;;;;;;2.78;1.02;;;17.20;67.80;;;;;;5115015;28;20043;-73
2022/05/14 08:02:51;;;;;;;1.00;0.90;;;17.20;67.60;;;;;;5114941;28;20043;-73
2022/05/14 08:05:20;;;;;;;2.13;0.90;;;17.40;67.50;;;;;;5114640;28;20031;-73
2022/05/14 08:07:48;;;;;;;2.08;0.90;;;17.60;67.60;;;;;;5114534;28;20537;-71
2022/05/14 08:10:16;;;;;;;3.08;1.10;;;17.80;67.50;;;;;;5114552;28;20084;-72
2022/05/14 08:12:44;;;;;;;2.92;1.08;;;18.00;67.40;;;;;;5113952;28;20039;-73
2022/05/14 08:15:13;;;;;;;2.83;1.10;;;18.10;67.10;;;;;;5114229;28;20052;-73
2022/05/14 08:17:39;;;;;;;2.58;1.08;;;18.20;67.00;;;;;;5096052;28;20046;-72
2022/05/14 08:20:06;;;;;;;1.27;0.55;;;18.30;67.00;;;;;;5113883;28;20039;-73
2022/05/14 08:25:15;;;;;;;2.42;0.98;;;18.50;67.00;;;;;;5114162;28;20578;-73
2022/05/14 08:27:44;;;;;;;2.92;1.13;;;18.50;67.10;;;;;;5113910;28;20122;-73
2022/05/14 08:30:16;;;;;;;1.73;0.88;;;18.50;67.30;;;;;;5114088;28;20050;-73
2022/05/14 08:32:43;;;;;;;1.15;0.80;;;18.70;67.30;;;;;;5114043;28;20093;-72
2022/05/14 08:35:09;;;;;;;4.72;1.70;;;18.70;67.10;;;;;;5114074;28;20036;-73
2022/05/14 08:37:35;;;;;;;1.58;1.08;;;18.80;66.90;;;;;;5095513;28;20504;-73
2022/05/14 08:40:13;;;;;;;3.05;0.98;;;18.80;66.90;;;;;;5114385;28;20043;-72
2022/05/14 08:42:40;;;;;;;3.08;1.00;;;19.00;66.80;;;;;;5112567;28;20477;-73
2022/05/14 08:45:06;;;;;;;2.38;0.90;;;19.20;66.50;;;;;;5114399;28;20048;-73
2022/05/14 08:47:36;;;;;;;1.88;1.25;;;19.30;66.30;;;;;;5095332;28;20047;-73
2022/05/14 08:50:05;;;;;;;3.88;1.23;;;19.20;66.50;;;;;;5113784;28;20036;-73
2022/05/14 08:52:31;;;;;;;2.33;1.00;;;19.20;66.80;;;;;;5113672;28;20048;-73
2022/05/14 08:55:01;;;;;;;3.22;1.27;;;19.30;67.00;;;;;;5113563;28;20035;-72
2022/05/14 08:57:41;;;;;;;2.13;0.80;;;19.30;66.90;;;;;;5114261;28;20111;-73
2022/05/14 09:00:08;;;;;;;1.95;0.93;;;19.40;66.60;;;;;;5113631;28;20047;-73
2022/05/14 09:02:52;;;;;;;1.13;0.80;;;19.60;66.60;;;;;;5113405;28;20123;-72
2022/05/14 09:05:21;;;;;;;1.55;0.93;;;19.70;66.20;;;;;;5112848;28;20500;-72
2022/05/14 09:07:50;;;;;;;2.92;1.10;;;19.80;66.20;;;;;;5113221;28;20089;-73
2022/05/14 09:10:30;;;;;;;2.50;1.02;;;19.80;66.10;;;;;;5095648;28;20047;-72
2022/05/14 09:13:00;;;;;;;2.38;0.93;;;19.80;66.10;;;;;;5113551;28;20048;-71
2022/05/14 09:15:30;;;;;;;2.42;1.00;;;20.00;65.90;;;;;;5095058;28;20079;-73
2022/05/14 09:18:08;;;;;;;2.20;1.00;;;20.00;65.50;;;;;;5113842;28;20040;-72
2022/05/14 09:20:56;;;;;;;1.13;0.80;;;20.10;65.50;;;;;;5113121;28;20431;-72
2022/05/14 09:23:33;;;;;;;1.02;0.70;;;20.00;66.30;;;;;;5111063;28;20040;-72
2022/05/14 09:26:13;;;;;;;1.27;0.80;;;20.10;65.90;;;;;;5093736;28;20082;-72
2022/05/14 09:28:45;;;;;;;2.20;0.93;;;20.20;65.80;;;;;;5111913;28;20042;-72
2022/05/14 09:31:11;;;;;;;2.55;0.68;;;20.30;65.50;;;;;;5112733;28;20055;-72
2022/05/14 09:33:42;;;;;;;1.92;0.80;;;20.50;65.30;;;;;;5112873;28;20118;-72
2022/05/14 09:36:15;;;;;;;2.25;1.08;;;20.60;64.90;;;;;;5112943;28;20024;-72
2022/05/14 09:38:42;;;;;;;2.55;0.90;;;20.70;64.70;;;;;;5111725;28;20592;-72
2022/05/14 09:41:11;;;;;;;2.10;0.70;;;20.70;64.60;;;;;;5112694;28;20048;-72
2022/05/14 09:43:38;;;;;;;2.30;0.90;;;20.80;64.50;;;;;;5113107;28;20071;-72
2022/05/14 09:46:10;;;;;;;3.53;1.10;;;20.90;64.10;;;;;;5113407;28;20052;-72
2022/05/14 09:48:47;;;;;;;2.00;0.75;;;21.00;64.00;;;;;;5094372;28;20035;-72
2022/05/14 09:51:28;;;;;;;1.25;0.75;;;21.20;64.00;;;;;;5112832;28;20035;-72
2022/05/14 09:53:54;;;;;;;2.72;0.95;;;21.30;63.70;;;;;;5112190;28;20177;-72
2022/05/14 09:56:56;;;;;;;1.48;0.98;;;21.50;63.40;;;;;;5112871;28;20093;-72
2022/05/14 09:59:50;;;;;;;1.63;1.02;;;21.70;62.90;;;;;;5113313;28;20047;-72
2022/05/14 10:02:41;;;;;;;1.58;0.82;;;21.70;62.70;;;;;;5112075;28;20635;-71
2022/05/14 10:05:27;;;;;;;3.00;0.85;;;21.60;63.00;;;;;;5112731;28;20036;-71
2022/05/14 10:08:00;;;;;;;3.00;0.85;;;21.80;62.90;;;;;;5112715;28;20032;-71
2022/05/14 10:10:48;;;;;;;2.38;0.93;;;21.80;62.70;;;;;;5112387;28;20035;-72
2022/05/14 10:13:27;;;;;;;2.13;0.77;;;21.70;62.50;;;;;;5092551;28;20497;-72
2022/05/14 10:16:23;;;;;;;1.80;0.90;;;21.40;63.20;;;;;;5094109;28;20047;-72
2022/05/14 10:19:22;;;;;;;1.75;1.10;;;21.50;63.40;;;;;;5110881;28;20019;-72
2022/05/14 10:22:22;;;;;;;1.10;0.70;;;21.40;63.50;;;;;;5097136;28;20118;-72
2022/05/14 10:28:04;;;;;;;1.85;1.00;;;21.80;62.80;;;;;;5110909;28;20051;-72
2022/05/14 10:31:05;;;;;;;2.22;1.05;;;21.90;62.20;;;;;;5112276;28;20040;-72
2022/05/14 10:33:32;;;;;;;2.80;1.00;;;21.90;61.80;;;;;;5110733;28;20092;-72
2022/05/14 10:36:06;;;;;;;2.30;1.20;;;21.90;61.80;;;;;;5112246;28;20047;-71
2022/05/14 10:38:56;;;;;;;1.77;0.80;;;21.90;61.70;;;;;;5112870;28;20046;-72
2022/05/14 10:41:41;;;;;;;3.20;1.13;;;21.90;61.90;;;;;;5111502;28;20093;-72
2022/05/14 10:44:22;;;;;;;3.35;0.90;;;21.90;61.60;;;;;;5112324;28;20059;-72
2022/05/14 10:46:49;;;;;;;0.95;0.60;;;22.00;61.40;;;;;;5095254;28;20119;-72
2022/05/14 10:49:28;;;;;;;2.05;0.82;;;22.10;61.10;;;;;;5112079;28;20047;-72
2022/05/14 10:51:55;;;;;;;1.55;0.70;;;22.20;60.80;;;;;;5111110;28;20092;-72
2022/05/14 10:54:23;;;;;;;1.70;0.70;;;22.40;60.50;;;;;;5112195;28;20052;-71
2022/05/14 10:56:56;;;;;;;2.70;0.70;;;22.40;60.00;;;;;;5111884;28;20035;-72
2022/05/14 10:59:38;;;;;;;1.17;0.80;;;22.50;59.90;;;;;;5110178;28;20043;-72
2022/05/14 11:02:12;;;;;;;2.67;0.88;;;22.60;59.70;;;;;;5111894;28;20035;-72
2022/05/14 11:04:48;;;;;;;0.82;0.60;;;22.80;59.40;;;;;;5111793;28;20070;-72
2022/05/14 11:07:35;;;;;;;2.10;0.80;;;22.90;59.10;;;;;;5115407;28;20046;-72
2022/05/14 11:10:33;;;;;;;1.40;0.70;;;22.90;59.00;;;;;;5096690;28;20060;-72
2022/05/14 11:13:20;;;;;;;2.13;0.60;;;23.00;59.00;;;;;;5096975;28;20046;-72
2022/05/14 11:15:57;;;;;;;2.60;0.77;;;23.10;58.80;;;;;;5114963;28;20051;-72
2022/05/14 11:18:23;;;;;;;2.15;1.00;;;23.10;58.70;;;;;;5114386;28;20042;-72
2022/05/14 11:20:57;;;;;;;1.45;1.00;;;23.20;58.60;;;;;;5115230;28;20039;-72
2022/05/14 11:23:23;;;;;;;1.15;0.70;;;23.20;59.10;;;;;;5115416;28;20040;-71
2022/05/14 11:26:08;;;;;;;2.53;1.00;;;23.20;58.40;;;;;;5113044;28;20174;-71
2022/05/14 11:28:35;;;;;;;0.82;0.70;;;23.20;58.10;;;;;;5097168;28;20122;-72
2022/05/14 11:31:21;;;;;;;1.17;0.70;;;23.20;58.30;;;;;;5114802;28;20063;-72
2022/05/14 11:33:48;;;;;;;1.30;0.65;;;23.30;58.10;;;;;;5114402;28;20043;-72
2022/05/14 11:36:28;;;;;;;0.80;0.60;;;23.30;57.90;;;;;;5115369;28;20039;-72
2022/05/14 11:39:22;;;;;;;1.50;0.90;;;23.40;57.90;;;;;;5115509;28;20047;-72
2022/05/14 11:41:51;;;;;;;2.10;0.65;;;23.40;57.70;;;;;;5114581;28;20130;-72
2022/05/14 11:44:33;;;;;;;2.13;0.80;;;23.50;57.50;;;;;;5096410;28;20047;-72
2022/05/14 11:47:00;;;;;;;3.40;1.10;;;23.60;57.50;;;;;;5113280;28;20104;-72
2022/05/14 11:49:36;;;;;;;1.35;0.70;;;23.60;57.40;;;;;;5114889;28;20031;-72
2022/05/14 11:52:23;;;;;;;2.40;0.93;;;23.50;57.40;;;;;;5114501;28;20054;-72
2022/05/14 11:55:06;;;;;;;1.75;0.90;;;23.50;57.30;;;;;;5114661;28;20051;-72
2022/05/14 11:57:36;;;;;;;1.70;0.88;;;23.50;57.50;;;;;;5114538;28;20110;-73
2022/05/14 12:00:08;;;;;;;1.25;0.85;;;23.50;57.50;;;;;;5114448;28;20039;-73
2022/05/14 12:02:55;;;;;;;1.95;0.90;;;23.50;57.50;;;;;;5114564;28;20061;-72
2022/05/14 12:05:28;;;;;;;1.95;0.90;;;23.50;57.20;;;;;;5114254;28;20040;-72
2022/05/14 12:08:35;;;;;;;0.60;0.50;;;23.60;57.00;;;;;;5114301;28;20066;-73
2022/05/14 12:11:27;;;;;;;1.63;0.80;;;23.70;56.80;;;;;;5114284;28;20482;-73
2022/05/14 12:14:12;;;;;;;0.63;0.63;;;23.70;56.70;;;;;;5114144;28;20114;-72
2022/05/14 12:16:41;;;;;;;2.05;0.90;;;23.80;56.60;;;;;;5114156;28;20060;-73
2022/05/14 12:19:19;;;;;;;1.83;0.90;;;23.90;56.50;;;;;;5114057;28;20079;-73
2022/05/14 12:21:52;;;;;;;1.00;0.80;;;24.00;56.30;;;;;;5114199;28;20032;-72
2022/05/14 12:24:21;;;;;;;1.77;0.70;;;24.00;56.20;;;;;;5113902;28;20043;-73
2022/05/14 12:26:47;;;;;;;1.27;0.68;;;23.90;56.20;;;;;;5095636;28;20483;-73
2022/05/14 12:29:22;;;;;;;2.67;0.90;;;23.80;56.30;;;;;;5114438;28;20066;-73
2022/05/14 12:34:49;;;;;;;1.35;0.70;;;23.70;56.90;;;;;;5113693;28;20142;-72
2022/05/14 12:37:20;;;;;;;1.95;1.15;;;23.70;56.40;;;;;;5113771;28;20068;-71
2022/05/14 12:39:51;;;;;;;1.48;0.77;;;23.80;56.00;;;;;;5113867;28;20046;-71
2022/05/14 12:42:22;;;;;;;1.88;0.98;;;23.50;56.10;;;;;;5113723;28;20040;-71
2022/05/14 12:44:51;;;;;;;1.90;1.05;;;23.50;56.20;;;;;;5095426;28;20051;-72
2022/05/14 12:47:25;;;;;;;2.30;0.95;;;23.60;56.10;;;;;;5113680;28;20059;-73
2022/05/14 12:49:52;;;;;;;1.67;0.80;;;23.70;55.90;;;;;;5113538;28;20515;-73
2022/05/14 12:52:22;;;;;;;1.13;0.73;;;23.70;55.70;;;;;;5114094;28;20043;-71
2022/05/14 12:54:51;;;;;;;;;;;23.70;55.70;;;;;;5114529;28;20044;-71
2022/05/14 12:57:18;;;;;;;1.52;0.68;;;23.60;55.90;;;;;;5113445;28;19946;-71
2022/05/14 12:59:44;;;;;;;2.25;0.80;;;23.50;56.10;;;;;;5113702;28;20040;-71
2022/05/14 13:02:21;;;;;;;1.80;0.70;;;23.60;56.00;;;;;;5095668;28;20039;-73
2022/05/14 13:04:56;;;;;;;1.98;0.82;;;23.60;56.30;;;;;;5113979;28;20027;-72
2022/05/14 13:07:23;;;;;;;0.88;0.70;;;23.60;55.60;;;;;;5113410;28;20067;-73
2022/05/14 13:09:50;;;;;;;1.65;0.90;;;23.50;55.60;;;;;;5113166;28;20046;-72
2022/05/14 13:12:20;;;;;;;2.00;1.00;;;23.50;55.80;;;;;;5113433;28;20043;-73
2022/05/14 13:14:51;;;;;;;2.87;0.80;;;23.50;55.60;;;;;;5113422;28;20554;-73
2022/05/14 13:17:17;;;;;;;2.33;1.00;;;23.60;55.50;;;;;;5113127;28;20261;-73
2022/05/14 13:19:47;;;;;;;1.23;0.73;;;23.60;55.50;;;;;;5113720;28;20054;-72
2022/05/14 13:22:29;;;;;;;2.08;0.80;;;23.60;55.30;;;;;;5112935;28;20490;-73
2022/05/14 13:24:56;;;;;;;0.88;0.77;;;23.60;55.20;;;;;;5112072;28;20039;-73
2022/05/14 13:27:37;;;;;;;1.48;0.88;;;23.60;55.20;;;;;;5113327;28;20066;-74